首页
METAR-TAF:

METAR-TAF

机场 :

维沙卡帕特南, 印度

纬度: 17-43-16N, 经度: 83-13-28E, 海拔: 6米

当前天气观测

该预报发布于48分钟前的13:00 UTC
风速10节,风向西南
温度 31°C
湿度 89%
气压 1002 hPa
能見度: 4500
少量云层高于1800英尺
散云层高于9000英尺
轻雾,

METAR: VOVZ 171300Z 23010KT 4500 BR FEW018 SCT090 31/29 Q1002 NOSIG

时间: 19:18 (13:48 UTC)

预报

该预报发布于2小时和48分钟前的11:00 UTC
预报有效从17日的 12点(UTC)到 17日的 21点(UTC)
风速10节,风向西南
能見度: 4500
少量云层高于1800英尺
散云层高于9000英尺
短暂存在
从 17日的 14点(UTC)到 17日的 17点(UTC)
风速10节,风向西南,有时为20节阵风
能見度: 3000
散云层高于1800英尺
少量云层高于2500英尺, 积雨云.
多云层高于9000英尺
雷暴, 雨,

TAF: VOVZ 171100Z 1712/1721 23010KT 4500 HZ FEW018 SCT090 TEMPO 1714/1717 22010G20KT 3000 TSRA SCT018 FEW025CB BKN090

超过4000个机场的气象观测和天气预报(METAR&TAF报告)。

可查询的气象台以黄色和红色小点在地图上表示。

将鼠标移到小点上方,可查看气象台名称。

然后点击查看天气观测和预报。

如需切换地图:点击带黑十字的绿色按钮放大地图;点击带横线的绿色按钮缩小地图;或者点击绿色箭头查看邻近地区的地图。


METAR-TAF: